CYYL

Lynn Lake Airport

Lynn Lake, Manitoba, Canada
TAF CYYL 210638Z 2107/2119 20008KT P6SM FEW120 FM211200 VRB03KT P6SM SCT200 RMK FCST BASED ON AUTO OBS. NXT FCST BY 211300Z
Issued Valid From Valid To
Apr-21 @ 06:38 UTC
(3 hours ago)
Apr-21 @ 07:00 UTC
(3 hours ago)
Apr-21 @ 19:00 UTC
(in 9 hours)
Apr-21 @ 07:00 to Apr-21 @ 12:00
TAF CYYL 210638Z 2107/2119 20008KT P6SM FEW120
Wind Visibility Clouds
200° at 8 knots Greater than 6 miles
  • Few at 12,000' AGL
From Apr-21 @ 12:00 to Apr-21 @ 19:00
FM211200 VRB03KT P6SM SCT200 RMK FCST BASED ON AUTO OBS. NXT FCST BY 211300Z
Wind Visibility Clouds
Variable at 3 knots Greater than 6 miles
  • Scattered at 20,000' AGL
TAF CYYL 210638Z 2107/2119 20008KT P6SM FEW120 FM211200 VRB03KT P6SM SCT200 RMK FCST BASED ON AUTO OBS. NXT FCST BY 211300Z
Issued Apr-21 @ 06:38 UTC
(3 hours ago)
Valid From Apr-21 @ 07:00 UTC
(3 hours ago)
Valid To Apr-21 @ 19:00 UTC
(in 9 hours)
Apr-21 @ 07:00 - Apr-21 @ 12:00
Wind Visibility
200° at 8 knots Greater than 6 miles
Clouds
  • Few at 12,000' AGL
From Apr-21 @ 12:00 - Apr-21 @ 19:00
Wind Visibility
Variable at 3 knots Greater than 6 miles
Clouds
  • Scattered at 20,000' AGL